Create Custom Reports and Graphics: Custom Report

Anza Map

Map

10 Minute Data

Latest Observation

23 Stations

10 Minute Data | America/Los_Angeles
as of 1/30/23 10:38 AM PST
Station Date Time Temp (°F) Dew Pt (°F) RH (%) Wind Spd (mph) Wind Dir (°) Wind Gust (mph) Wind Gst Dir (°) Daily Max Temp (°F) Daily Min Temp (°F) Daily Max Wind (mph) Max Wind Dir (°)
Thomas Mountain 1/30/23 1030 32.9   0.3 32.8   0.0 100   1 8.6 ENE | 75 13.0 ENE | 78 33.5 28.4 15.0 ENE | 65
Red Mountain 1/30/23 1030 37.2   2.5 33.4   1.3 86   14 11.2 SW | 218 15.0 SW | 218 37.7 31.0 22.4 NNW | 327
Coyote Canyon 1/30/23 1030 38.7   0.0 34.0   1.5 83   5 6.6 N | 4 11.2 N | 6 39.5 33.2 12.2 ENE | 61
Pinyon 1/30/23 1030 36.3   2.5 29.5   3.4 76   3 4.6 NE | 50 9.0 NE | 52 36.7 31.6 19.4 SW | 231
Aguanga Barbara Trail 1/30/23 1030 44.9   4.5 35.6   2.9 70   23 7.9 ENE | 78 13.6 ENE | 74 45.3 33.7 16.5 ENE | 59
SCE Idyllwild Ridge 1/30/23 1030 33.0   1.6 32.1   2.2 96   2 0.0 N | 0 0.0 SSE | 147 33.6 26.1 0.6 E | 81
SCE Idyllwild Hwy 1/30/23 1030 47.6   2.5 39.5   3.0 73   17 2.1 NNW | 336 7.2 N | 354 48.7 37.8 7.2 N | 354
SCE Apple Canyon 1/30/23 1030 35.3   1.3 29.6   3.5 79   17 7.1 ENE | 57 10.5 NE | 55 35.7 27.5 16.9 NE | 50
SCE Keen Ridge 1/30/23 1030 31.6   1.3 31.6   1.3 100   0 4.3 ESE | 116 7.2 E | 98 32.0 27.4 13.8 S | 169
SCE Aguanga 1/30/23 1030 47.8   1.0 39.0   1.3 71   7 3.9 SSE | 150 8.7 SSE | 165 48.5 37.4 14.0 ESE | 107
SCE Butterfield Valley 1/30/23 1030 48.4   2.3 44.8   4.2 87   19 2.8 W | 264 5.5 W | 277 48.8 40.5 7.5 ESE | 110
SCE Anza Rd 1/30/23 1030 47.8   2.6 43.7   0.7 86   6 2.3 WNW | 284 4.2 W | 280 48.4 41.9 10.0 E | 99
SCE Wilson Valley Rd 1/30/23 1030 47.8   2.1 39.6   0.6 73   8 6.1 S | 175 10.0 SSE | 158 48.7 36.8 11.4 ESE | 118
SCE Weber Valley 1/30/23 1030 46.4   3.7 35.1   4.3 65   23 7.6 SSE | 165 15.4 SSE | 157 47.0 36.0 15.4 SSE | 157
SCE Red Mountain Rd 1/30/23 1030 44.2   4.8 35.6   3.8 71   28 5.0 S | 178 8.8 S | 173 44.8 34.9 13.2 WSW | 246
SCE Brown Canyon 1/30/23 1030 46.8   0.3 40.1   2.2 77   8 4.0 W | 270 6.9 WSW | 253 47.2 38.7 8.2 E | 83
SCE Cedar Ave 1/30/23 1030 46.5   0.0 41.5   1.4 83   4 4.2 NW | 308 5.8 NW | 306 47.0 40.2 7.2 NW | 321
SCE Anderson Dr 1/30/23 1030 48.5   2.0 42.2   0.8 79   9 3.2 WNW | 296 7.5 W | 270 49.7 40.8 7.5 W | 270
SCE Pachea Trail 1/30/23 1030 46.4   1.0 39.1   3.5 75   14 3.9 NNW | 339 6.9 NNW | 334 46.9 40.7 8.6 S | 169
SCE Painted Canyon Rd 1/30/23 1030 53.6   1.7 36.1   1.2 51   1 2.9 ESE | 109 5.6 ESE | 117 54.1 46.3 10.0 WSW | 252
Oak Grove 1/30/23 1030 44.6   0.1 38.6   0.3 79   1 9.0 ESE | 120 11.5 ESE | 120 44.8 35.5 14.8 NE | 38
Chihuahua Valley 1/30/23 1030 38.1   2.2 33.9   1.9 85   15 7.6 E | 97 11.8 ESE | 118 38.7 31.9 19.3 SSW | 204
Sunshine Summit 12/14/22 1230 50.6   6.3 25.7   4.3 38   19 4.5 SSE | 149 8.6 SSE | 152 51.0 27.5 13.6 SSE | 166
Max     53.6 44.8 100 11.2 - 15.4 - 54.1 46.3 22.4 -
Avg     42.9 36.7 79 5.2 - 8.9 - - - - -
Min     31.6 29.5 51 0.0 - 0.0 - 32.0 26.1 0.6 -